createdAt,value
2023-10-03T00:00:25.337Z,13.60
2023-10-03T00:05:52.270Z,15.40
2023-10-03T00:10:56.881Z,14.10
2023-10-03T00:16:04.556Z,12.70
2023-10-03T00:21:08.427Z,12.20
2023-10-03T00:26:18.339Z,16.20
2023-10-03T00:31:22.980Z,18.30
2023-10-03T00:36:27.682Z,13.90
2023-10-03T00:41:31.732Z,12.00
2023-10-03T00:46:35.668Z,17.90
2023-10-03T00:51:41.723Z,14.90
2023-10-03T00:56:48.210Z,16.50
2023-10-03T01:01:58.683Z,17.20
2023-10-03T01:07:03.528Z,14.20
2023-10-03T01:12:08.020Z,15.80
2023-10-03T01:17:15.016Z,14.20
2023-10-03T01:22:19.796Z,12.30
2023-10-03T01:27:24.320Z,15.00
2023-10-03T01:32:32.934Z,12.90
2023-10-03T01:37:38.973Z,12.70
2023-10-03T01:42:46.144Z,22.10
2023-10-03T01:47:52.268Z,11.40
2023-10-03T01:52:56.601Z,13.30
2023-10-03T01:58:00.525Z,10.30
2023-10-03T02:03:07.152Z,14.90
2023-10-03T02:08:16.348Z,11.30
2023-10-03T02:13:22.339Z,14.00
2023-10-03T02:18:27.581Z,17.50
2023-10-03T02:23:33.401Z,13.90
2023-10-03T02:28:37.756Z,13.00
2023-10-03T02:33:44.363Z,15.30
2023-10-03T02:38:48.933Z,16.90
2023-10-03T02:43:53.490Z,16.40
2023-10-03T02:48:57.644Z,15.70
2023-10-03T02:54:03.012Z,19.20
2023-10-03T02:59:07.495Z,16.00
2023-10-03T03:04:12.908Z,16.20
2023-10-03T03:09:24.427Z,19.50
2023-10-03T03:14:28.830Z,14.90
2023-10-03T03:19:33.862Z,15.70
2023-10-03T03:24:38.118Z,15.50
2023-10-03T03:29:58.745Z,17.80
2023-10-03T03:35:03.487Z,18.00
2023-10-03T03:40:19.867Z,17.50
2023-10-03T03:45:23.646Z,17.10
2023-10-03T03:50:32.785Z,19.20
2023-10-03T03:55:39.012Z,17.50
2023-10-03T04:00:48.487Z,17.00
2023-10-03T04:05:52.543Z,17.60
2023-10-03T04:10:56.860Z,19.30
2023-10-03T04:16:02.405Z,14.60
2023-10-03T04:21:06.787Z,17.90
2023-10-03T04:26:11.454Z,16.70
2023-10-03T04:31:15.654Z,20.10
2023-10-03T04:36:25.277Z,19.30
2023-10-03T04:41:30.013Z,17.10
2023-10-03T04:46:34.430Z,18.70
2023-10-03T04:51:38.580Z,17.30
2023-10-03T04:56:44.918Z,21.10
2023-10-03T05:06:52.584Z,14.70
2023-10-03T05:11:56.535Z,17.80
2023-10-03T05:17:02.598Z,18.90
2023-10-03T05:22:09.724Z,21.00
2023-10-03T05:27:13.872Z,17.80
2023-10-03T05:32:18.976Z,18.60
2023-10-03T05:37:23.377Z,14.00
2023-10-03T05:42:27.569Z,17.40
2023-10-03T05:47:31.831Z,20.00
2023-10-03T05:52:36.124Z,18.40
2023-10-03T05:57:42.308Z,18.10
2023-10-03T06:02:48.283Z,16.40
2023-10-03T06:07:52.470Z,17.70
2023-10-03T06:12:56.504Z,17.30
2023-10-03T06:23:34.955Z,16.80
2023-10-03T06:28:42.742Z,20.10
2023-10-03T06:33:51.440Z,20.90
2023-10-03T06:39:00.616Z,20.80
2023-10-03T06:44:08.938Z,17.60
2023-10-03T06:49:18.868Z,21.00
2023-10-03T06:54:27.311Z,22.40
2023-10-03T06:59:35.205Z,22.20
2023-10-03T07:04:43.121Z,17.40
2023-10-03T07:09:51.662Z,16.70
2023-10-03T07:14:59.864Z,21.70
2023-10-03T07:20:10.522Z,18.50
2023-10-03T07:25:18.240Z,15.90
2023-10-03T07:30:26.577Z,14.90
2023-10-03T07:35:37.309Z,17.30
2023-10-03T07:40:46.143Z,16.10
2023-10-03T07:45:54.279Z,15.90
2023-10-03T07:51:07.069Z,12.70
2023-10-03T07:56:27.425Z,13.90
2023-10-03T08:06:51.154Z,13.30
2023-10-03T08:12:00.039Z,11.50
2023-10-03T08:17:08.402Z,16.30
2023-10-03T08:22:16.061Z,16.10
2023-10-03T08:27:23.616Z,15.30
2023-10-03T08:32:31.027Z,14.10
2023-10-03T08:37:40.543Z,12.10
2023-10-03T08:42:54.324Z,11.40
2023-10-03T08:48:07.777Z,13.00
2023-10-03T08:53:18.790Z,16.30
2023-10-03T08:58:28.095Z,16.80
2023-10-03T09:03:49.457Z,15.90
2023-10-03T09:09:10.128Z,14.10
2023-10-03T09:14:21.638Z,13.90
2023-10-03T09:19:46.304Z,14.90
2023-10-03T09:24:57.523Z,13.70
2023-10-03T09:30:11.984Z,13.50
2023-10-03T09:35:19.785Z,14.10
2023-10-03T09:40:29.180Z,13.90
2023-10-03T09:45:38.462Z,11.80
2023-10-03T09:50:53.532Z,11.00
2023-10-03T09:56:02.832Z,14.70
2023-10-03T10:01:13.551Z,6.70
2023-10-03T10:06:39.771Z,8.00
2023-10-03T10:12:16.391Z,6.50
2023-10-03T10:17:24.244Z,6.90
2023-10-03T10:23:04.689Z,8.00
2023-10-03T10:28:15.618Z,8.40
2023-10-03T10:33:29.437Z,8.20
2023-10-03T10:38:54.804Z,11.20
2023-10-03T10:44:15.324Z,7.90
2023-10-03T10:50:17.502Z,7.50
2023-10-03T10:55:28.959Z,8.60
2023-10-03T11:00:37.227Z,10.30
2023-10-03T11:05:50.327Z,10.10
2023-10-03T11:10:58.508Z,9.40
2023-10-03T11:16:10.008Z,9.90
2023-10-03T11:21:18.104Z,8.70
2023-10-03T11:26:25.963Z,8.20
2023-10-03T11:31:39.194Z,8.40
2023-10-03T11:36:48.144Z,9.00
2023-10-03T11:41:55.790Z,8.10
2023-10-03T11:47:03.799Z,10.40
2023-10-03T11:52:12.002Z,8.60
2023-10-03T11:57:20.160Z,11.50
2023-10-03T12:02:28.342Z,10.90
2023-10-03T12:07:36.622Z,11.50
2023-10-03T12:12:45.101Z,13.90
2023-10-03T12:17:54.101Z,7.90
2023-10-03T12:23:06.197Z,12.30
2023-10-03T12:28:18.010Z,10.90
2023-10-03T12:33:26.368Z,11.30
2023-10-03T12:38:34.992Z,11.20
2023-10-03T12:43:48.106Z,10.20
2023-10-03T12:48:56.578Z,12.40
2023-10-03T12:54:06.140Z,10.40
2023-10-03T12:59:14.684Z,10.90
2023-10-03T13:04:26.385Z,14.20
2023-10-03T13:09:36.550Z,14.30
2023-10-03T13:14:44.407Z,13.70
2023-10-03T13:19:52.517Z,12.60
2023-10-03T13:25:00.640Z,13.10
2023-10-03T13:30:11.830Z,13.10
2023-10-03T13:35:22.366Z,10.80
2023-10-03T13:40:30.681Z,12.40
2023-10-03T13:45:38.686Z,14.70
2023-10-03T13:50:48.934Z,15.40
2023-10-03T13:55:59.789Z,15.40
2023-10-03T14:01:13.611Z,19.60
2023-10-03T14:06:22.283Z,21.60
2023-10-03T14:11:30.032Z,21.60
2023-10-03T14:16:37.816Z,19.40
2023-10-03T14:21:47.135Z,18.80
2023-10-03T14:26:54.769Z,19.20
2023-10-03T14:32:03.211Z,21.20
2023-10-03T14:37:11.032Z,20.20
2023-10-03T14:42:18.588Z,23.10
2023-10-03T14:47:29.474Z,24.30
2023-10-03T14:52:37.495Z,23.10
2023-10-03T14:57:45.898Z,20.50
2023-10-03T15:02:53.898Z,22.40
2023-10-03T15:08:03.251Z,23.30
2023-10-03T15:13:10.529Z,22.10
2023-10-03T15:18:18.442Z,21.60
2023-10-03T15:23:27.577Z,23.20
2023-10-03T15:28:37.383Z,21.20
2023-10-03T15:33:45.370Z,24.90
2023-10-03T15:38:53.000Z,22.10
2023-10-03T15:44:00.932Z,23.00
2023-10-03T15:49:08.864Z,20.90
2023-10-03T15:54:16.730Z,21.10
2023-10-03T15:59:25.596Z,23.80
2023-10-03T16:04:33.931Z,21.60
2023-10-03T16:09:45.019Z,22.30
2023-10-03T16:14:53.083Z,22.50
2023-10-03T16:23:24.071Z,28.40
2023-10-03T16:28:32.746Z,24.80
2023-10-03T16:33:40.291Z,23.10
2023-10-03T16:38:48.409Z,21.60
2023-10-03T16:43:56.967Z,20.30
2023-10-03T16:49:05.143Z,20.50
2023-10-03T16:54:13.006Z,37.40
2023-10-03T16:59:20.808Z,20.00
2023-10-03T17:04:29.045Z,19.20
2023-10-03T17:09:37.363Z,21.80
2023-10-03T17:14:45.985Z,19.40
2023-10-03T17:19:53.730Z,22.40
2023-10-03T17:25:02.835Z,22.50
2023-10-03T17:40:00.810Z,21.50
2023-10-03T17:45:11.377Z,19.60
2023-10-03T17:50:20.258Z,19.60
2023-10-03T17:55:28.699Z,18.70
2023-10-03T18:00:36.276Z,19.00
2023-10-03T18:05:44.223Z,19.80
2023-10-03T18:10:53.515Z,20.70
2023-10-03T18:16:01.995Z,19.40
2023-10-03T18:21:11.818Z,17.90
2023-10-03T18:26:19.754Z,19.20
2023-10-03T18:31:27.765Z,16.40
2023-10-03T18:36:35.770Z,21.70
2023-10-03T18:41:43.785Z,16.50
2023-10-03T18:46:51.721Z,22.30
2023-10-03T18:51:59.516Z,19.80
2023-10-03T18:57:07.632Z,20.30
2023-10-03T19:02:15.731Z,19.90
2023-10-03T19:07:23.466Z,23.70
2023-10-03T19:12:32.019Z,21.10
2023-10-03T19:17:40.228Z,17.70
2023-10-03T19:22:48.054Z,17.10
2023-10-03T19:27:56.993Z,18.00
2023-10-03T19:33:05.101Z,18.90
2023-10-03T19:38:12.741Z,26.00
2023-10-03T19:43:21.161Z,17.70
2023-10-03T19:48:28.682Z,19.50
2023-10-03T19:53:36.296Z,19.70
2023-10-03T19:58:43.807Z,20.80
2023-10-03T20:03:52.270Z,21.40
2023-10-03T20:08:59.772Z,51.10
2023-10-03T20:14:09.734Z,16.40
2023-10-03T20:23:28.172Z,18.30
2023-10-03T20:28:36.536Z,20.90
2023-10-03T20:33:44.715Z,21.20
2023-10-03T20:38:53.997Z,15.50
2023-10-03T20:44:02.081Z,19.60
2023-10-03T20:49:09.957Z,16.60
2023-10-03T20:54:17.753Z,20.90
2023-10-03T20:59:25.389Z,15.50
2023-10-03T21:04:34.561Z,32.90
2023-10-03T21:09:42.959Z,18.10
2023-10-03T21:14:51.266Z,17.90
2023-10-03T21:19:59.745Z,18.60
2023-10-03T21:25:11.115Z,21.40
2023-10-03T21:30:19.835Z,23.10
2023-10-03T21:35:28.711Z,15.70
2023-10-03T21:50:21.159Z,20.00
2023-10-03T21:55:29.617Z,22.10
2023-10-03T22:00:40.278Z,19.10
2023-10-03T22:05:48.263Z,23.30
2023-10-03T22:10:57.000Z,20.40
2023-10-03T22:23:24.706Z,21.70
2023-10-03T22:28:33.258Z,17.40
2023-10-03T22:33:41.384Z,19.10
2023-10-03T22:38:49.784Z,17.50
2023-10-03T22:43:57.426Z,14.90
2023-10-03T22:49:06.151Z,16.60
2023-10-03T22:54:13.908Z,11.50
2023-10-03T22:59:21.690Z,9.90
2023-10-03T23:04:29.376Z,12.20
2023-10-03T23:09:37.795Z,13.40
2023-10-03T23:14:46.151Z,10.90
2023-10-03T23:19:54.655Z,10.10
2023-10-03T23:25:02.496Z,15.20
2023-10-03T23:30:13.679Z,13.50
2023-10-03T23:35:23.230Z,10.40
2023-10-03T23:40:31.604Z,9.50
2023-10-03T23:45:42.934Z,9.80
2023-10-03T23:50:50.585Z,6.00
2023-10-03T23:56:00.192Z,9.00
